createdAt,value
2018-12-10T00:00:07.959Z,93.16
2018-12-10T00:02:36.286Z,93.71
2018-12-10T00:05:06.084Z,94.18
2018-12-10T00:07:34.337Z,94.25
2018-12-10T00:10:02.585Z,93.69
2018-12-10T00:12:31.096Z,92.96
2018-12-10T00:14:59.346Z,93.32
2018-12-10T00:20:05.895Z,92.71
2018-12-10T00:22:34.135Z,91.83
2018-12-10T00:25:02.459Z,92.36
2018-12-10T00:27:30.723Z,93.11
2018-12-10T00:29:58.991Z,94.10
2018-12-10T00:32:27.271Z,94.22
2018-12-10T00:34:55.554Z,96.13
2018-12-10T00:37:23.812Z,96.60
2018-12-10T00:39:52.072Z,96.39
2018-12-10T00:42:20.339Z,98.49
2018-12-10T00:44:48.719Z,97.14
2018-12-10T00:47:17.036Z,98.21
2018-12-10T00:49:45.306Z,99.38
2018-12-10T00:52:13.564Z,99.17
2018-12-10T00:54:41.840Z,98.59
2018-12-10T00:57:10.091Z,97.35
2018-12-10T00:59:38.364Z,98.22
2018-12-10T01:02:06.641Z,97.59
2018-12-10T01:04:34.918Z,97.51
2018-12-10T01:07:03.527Z,97.12
2018-12-10T01:09:31.844Z,96.81
2018-12-10T01:12:00.083Z,97.59
2018-12-10T01:14:28.372Z,98.96
2018-12-10T01:16:56.643Z,97.47
2018-12-10T01:19:24.912Z,98.57
2018-12-10T01:21:53.219Z,98.43
2018-12-10T01:24:21.489Z,98.60
2018-12-10T01:26:49.757Z,98.03
2018-12-10T01:29:18.280Z,96.90
2018-12-10T01:31:46.556Z,97.92
2018-12-10T01:34:14.790Z,99.05
2018-12-10T01:36:43.053Z,99.60
2018-12-10T01:39:12.560Z,98.93
2018-12-10T01:41:40.841Z,99.08
2018-12-10T01:44:09.143Z,99.21
2018-12-10T01:46:37.435Z,100.00
2018-12-10T01:49:05.727Z,99.29
2018-12-10T01:51:34.000Z,99.85
2018-12-10T01:54:02.301Z,98.84
2018-12-10T01:56:30.608Z,99.63
2018-12-10T01:58:58.875Z,97.57
2018-12-10T02:04:07.165Z,96.93
2018-12-10T02:06:35.432Z,96.49
2018-12-10T02:09:05.123Z,97.48
2018-12-10T02:11:33.549Z,97.15
2018-12-10T02:14:01.797Z,94.62
2018-12-10T02:16:30.050Z,95.13
2018-12-10T02:18:58.307Z,95.15
2018-12-10T02:21:26.577Z,95.52
2018-12-10T02:23:55.189Z,94.74
2018-12-10T02:26:23.987Z,94.79
2018-12-10T02:28:57.617Z,94.37
2018-12-10T02:31:25.885Z,95.01
2018-12-10T02:33:54.252Z,95.33
2018-12-10T02:36:23.508Z,95.18
2018-12-10T02:38:51.801Z,95.10
2018-12-10T02:41:20.048Z,94.43
2018-12-10T02:43:48.303Z,92.11
2018-12-10T02:46:16.562Z,92.25
2018-12-10T02:48:44.826Z,92.91
2018-12-10T02:51:13.444Z,92.24
2018-12-10T02:53:41.701Z,93.68
2018-12-10T02:56:09.970Z,92.22
2018-12-10T02:58:38.222Z,92.13
2018-12-10T03:01:06.832Z,91.91
2018-12-10T03:03:35.088Z,91.89
2018-12-10T03:06:03.349Z,91.24
2018-12-10T03:08:31.927Z,91.88
2018-12-10T03:11:00.271Z,91.27
2018-12-10T03:13:28.517Z,91.80
2018-12-10T03:15:56.780Z,91.04
2018-12-10T03:18:25.028Z,91.07
2018-12-10T03:20:53.296Z,91.56
2018-12-10T03:23:21.568Z,90.25
2018-12-10T03:25:49.859Z,90.79
2018-12-10T03:28:18.385Z,90.49
2018-12-10T03:30:46.650Z,90.78
2018-12-10T03:33:15.005Z,90.03
2018-12-10T03:35:43.583Z,90.47
2018-12-10T03:38:11.839Z,90.37
2018-12-10T03:40:40.089Z,91.90
2018-12-10T03:43:08.356Z,92.57
2018-12-10T03:45:36.595Z,92.24
2018-12-10T03:48:04.857Z,91.56
2018-12-10T03:50:33.114Z,93.26
2018-12-10T03:53:01.456Z,91.80
2018-12-10T03:55:29.971Z,91.90
2018-12-10T03:57:58.215Z,91.78
2018-12-10T04:00:26.484Z,90.25
2018-12-10T04:02:54.766Z,92.54
2018-12-10T04:05:23.107Z,92.34
2018-12-10T04:07:51.757Z,92.87
2018-12-10T04:10:20.010Z,92.06
2018-12-10T04:12:48.253Z,92.03
2018-12-10T04:15:16.671Z,92.47
2018-12-10T04:17:44.994Z,92.42
2018-12-10T04:20:13.246Z,92.05
2018-12-10T04:22:41.737Z,92.19
2018-12-10T04:25:09.990Z,90.95
2018-12-10T04:27:38.252Z,92.00
2018-12-10T04:30:06.642Z,92.68
2018-12-10T04:32:35.150Z,92.14
2018-12-10T04:35:03.494Z,91.96
2018-12-10T04:37:31.736Z,91.56
2018-12-10T04:40:00.011Z,90.77
2018-12-10T04:42:28.337Z,90.78
2018-12-10T04:44:56.680Z,91.21
2018-12-10T04:47:24.940Z,90.93
2018-12-10T04:49:53.228Z,89.24
2018-12-10T04:52:21.525Z,89.06
2018-12-10T04:54:49.907Z,88.32
2018-12-10T04:57:18.148Z,87.35
2018-12-10T04:59:52.739Z,86.32
2018-12-10T05:02:16.690Z,85.70
2018-12-10T05:04:44.930Z,85.30
2018-12-10T05:07:13.179Z,85.80
2018-12-10T05:09:41.830Z,86.07
2018-12-10T05:12:10.100Z,84.79
2018-12-10T05:14:38.363Z,84.52
2018-12-10T05:17:06.607Z,84.61
2018-12-10T05:19:34.932Z,83.21
2018-12-10T05:22:03.244Z,83.04
2018-12-10T05:24:31.492Z,83.88
2018-12-10T05:27:01.224Z,84.55
2018-12-10T05:29:29.655Z,83.60
2018-12-10T05:31:57.956Z,84.38
2018-12-10T05:34:26.249Z,83.79
2018-12-10T05:36:54.502Z,83.49
2018-12-10T05:39:22.760Z,84.09
2018-12-10T05:41:51.008Z,84.18
2018-12-10T05:44:19.263Z,84.73
2018-12-10T05:46:47.502Z,84.52
2018-12-10T05:49:15.770Z,83.70
2018-12-10T05:51:44.055Z,84.82
2018-12-10T05:54:12.365Z,83.96
2018-12-10T05:56:40.690Z,83.84
2018-12-10T05:59:08.975Z,84.55
2018-12-10T06:01:37.254Z,84.17
2018-12-10T06:04:05.514Z,84.84
2018-12-10T06:06:33.754Z,83.71
2018-12-10T06:09:02.082Z,85.25
2018-12-10T06:11:30.357Z,85.46
2018-12-10T06:13:58.652Z,86.69
2018-12-10T06:16:26.889Z,86.79
2018-12-10T06:18:55.347Z,86.21
2018-12-10T06:21:23.627Z,85.48
2018-12-10T06:23:51.998Z,84.48
2018-12-10T06:26:20.266Z,84.85
2018-12-10T06:28:48.532Z,84.27
2018-12-10T06:31:17.052Z,84.61
2018-12-10T06:33:45.350Z,84.24
2018-12-10T06:36:13.693Z,84.88
2018-12-10T06:38:42.220Z,84.15
2018-12-10T06:41:10.463Z,84.03
2018-12-10T06:43:38.772Z,85.76
2018-12-10T06:46:07.048Z,84.54
2018-12-10T06:48:35.313Z,87.50
2018-12-10T06:51:03.567Z,87.69
2018-12-10T06:53:31.808Z,88.36
2018-12-10T06:56:00.054Z,88.62
2018-12-10T06:58:28.361Z,88.31
2018-12-10T07:00:56.599Z,89.99
2018-12-10T07:03:25.497Z,88.96
2018-12-10T07:05:54.044Z,89.40
2018-12-10T07:08:22.283Z,89.85
2018-12-10T07:10:50.629Z,91.75
2018-12-10T07:13:18.874Z,91.86
2018-12-10T07:15:47.130Z,93.17
2018-12-10T07:18:15.393Z,93.46
2018-12-10T07:20:43.674Z,94.27
2018-12-10T07:23:12.184Z,94.68
2018-12-10T07:25:40.452Z,94.31
2018-12-10T07:28:08.709Z,93.92
2018-12-10T07:30:41.439Z,93.99
2018-12-10T07:33:07.501Z,92.39
2018-12-10T07:35:35.749Z,93.52
2018-12-10T07:38:04.011Z,95.60
2018-12-10T07:40:32.362Z,95.64
2018-12-10T07:43:00.656Z,94.84
2018-12-10T07:45:29.411Z,94.76
2018-12-10T07:47:57.800Z,94.83
2018-12-10T07:50:26.106Z,94.58
2018-12-10T07:52:54.399Z,94.75
2018-12-10T07:55:22.952Z,95.69
2018-12-10T08:00:31.383Z,94.55
2018-12-10T08:02:59.665Z,93.76
2018-12-10T08:05:27.920Z,95.20
2018-12-10T08:07:56.154Z,95.85
2018-12-10T08:10:24.430Z,95.42
2018-12-10T08:12:52.667Z,96.09
2018-12-10T08:15:21.050Z,96.19
2018-12-10T08:17:49.569Z,96.30
2018-12-10T08:20:17.802Z,94.61
2018-12-10T08:22:46.078Z,96.59
2018-12-10T08:25:14.331Z,96.24
2018-12-10T08:27:42.660Z,94.14
2018-12-10T08:30:11.044Z,93.54
2018-12-10T08:32:39.310Z,94.49
2018-12-10T08:35:07.741Z,94.26
2018-12-10T08:37:36.064Z,95.33
2018-12-10T08:40:04.900Z,94.09
2018-12-10T08:42:33.131Z,93.33
2018-12-10T08:45:01.409Z,92.42
2018-12-10T08:47:29.678Z,92.09
2018-12-10T08:49:57.982Z,94.17
2018-12-10T08:52:26.245Z,93.20
2018-12-10T08:54:54.545Z,94.55
2018-12-10T08:57:22.835Z,95.93
2018-12-10T08:59:51.145Z,96.12
2018-12-10T09:02:19.512Z,96.17
2018-12-10T09:04:47.768Z,96.05
2018-12-10T09:07:16.028Z,97.58
2018-12-10T09:09:44.293Z,97.46
2018-12-10T09:12:13.156Z,97.59
2018-12-10T09:14:41.446Z,98.04
2018-12-10T09:17:09.693Z,98.77
2018-12-10T09:19:37.964Z,97.94
2018-12-10T09:24:42.669Z,97.14
2018-12-10T09:27:10.935Z,96.74
2018-12-10T09:29:39.249Z,98.34
2018-12-10T09:32:07.696Z,97.22
2018-12-10T09:34:35.933Z,96.70
2018-12-10T09:37:04.181Z,96.71
2018-12-10T09:39:32.444Z,95.75
2018-12-10T09:42:00.678Z,95.89
2018-12-10T09:44:28.982Z,95.63
2018-12-10T09:46:59.125Z,96.12
2018-12-10T09:49:27.684Z,94.92
2018-12-10T09:51:55.961Z,95.01
2018-12-10T09:54:24.197Z,94.00
2018-12-10T09:56:52.498Z,93.40
2018-12-10T09:59:20.752Z,92.49
2018-12-10T10:01:49.005Z,92.98
2018-12-10T10:04:17.267Z,91.71
2018-12-10T10:06:45.527Z,92.83
2018-12-10T10:09:14.038Z,93.45
2018-12-10T10:11:42.493Z,93.22
2018-12-10T10:14:10.764Z,93.71
2018-12-10T10:16:39.012Z,93.80
2018-12-10T10:19:07.263Z,91.25
2018-12-10T10:21:35.533Z,92.60
2018-12-10T10:24:03.796Z,93.34
2018-12-10T10:26:32.040Z,93.18
2018-12-10T10:29:00.282Z,90.70
2018-12-10T10:31:28.534Z,92.40
2018-12-10T10:33:56.840Z,91.85
2018-12-10T10:36:25.188Z,92.14
2018-12-10T10:38:53.452Z,91.78
2018-12-10T10:41:21.708Z,93.13
2018-12-10T10:43:49.989Z,93.46
2018-12-10T10:46:18.241Z,92.76
2018-12-10T10:48:46.524Z,92.37
2018-12-10T10:51:14.854Z,93.16
2018-12-10T10:53:43.133Z,91.51
2018-12-10T10:56:11.391Z,91.45
2018-12-10T10:58:39.753Z,92.72
2018-12-10T11:01:13.663Z,89.96
2018-12-10T11:06:20.263Z,89.41
2018-12-10T11:08:48.563Z,87.28
2018-12-10T11:11:16.799Z,89.28
2018-12-10T11:13:45.155Z,88.11
2018-12-10T11:16:13.447Z,87.30
2018-12-10T11:18:41.740Z,87.49
2018-12-10T11:21:09.999Z,86.81
2018-12-10T11:23:38.252Z,85.86
2018-12-10T11:26:06.572Z,85.53
2018-12-10T11:30:20.787Z,86.42
2018-12-10T11:32:49.066Z,85.79
2018-12-10T11:35:17.301Z,86.36
2018-12-10T11:37:45.588Z,88.17
2018-12-10T11:40:13.991Z,88.34
2018-12-10T11:42:42.265Z,90.32
2018-12-10T11:45:10.568Z,88.38
2018-12-10T11:47:38.823Z,88.42
2018-12-10T11:50:07.231Z,85.94
2018-12-10T11:52:35.580Z,86.64
2018-12-10T11:55:03.846Z,86.43
2018-12-10T11:57:32.117Z,86.89
2018-12-10T12:00:00.376Z,86.31
2018-12-10T12:02:29.814Z,83.83
2018-12-10T12:04:58.430Z,84.98
2018-12-10T12:07:26.684Z,85.40
2018-12-10T12:09:55.004Z,83.44
2018-12-10T12:12:23.276Z,84.43
2018-12-10T12:14:51.593Z,83.95
2018-12-10T12:17:19.833Z,83.86
2018-12-10T12:19:48.125Z,84.13
2018-12-10T12:22:16.373Z,83.08
2018-12-10T12:24:44.886Z,85.21
2018-12-10T12:27:13.246Z,84.75
2018-12-10T12:29:41.549Z,84.00
2018-12-10T12:32:09.788Z,84.00
2018-12-10T12:34:38.027Z,84.36
2018-12-10T12:37:06.293Z,85.52
2018-12-10T12:39:34.527Z,84.02
2018-12-10T12:42:02.869Z,84.30
2018-12-10T12:44:31.257Z,82.54
2018-12-10T12:46:59.512Z,81.34
2018-12-10T12:49:27.823Z,82.04
2018-12-10T12:51:56.249Z,83.17
2018-12-10T12:54:24.540Z,82.93
2018-12-10T12:56:52.804Z,82.42
2018-12-10T12:59:21.165Z,82.89
2018-12-10T13:01:49.725Z,83.38
2018-12-10T13:04:18.040Z,83.26
2018-12-10T13:06:46.369Z,82.29
2018-12-10T13:09:21.562Z,82.09
2018-12-10T13:11:44.925Z,83.15
2018-12-10T13:14:13.174Z,82.55
2018-12-10T13:16:49.262Z,83.00
2018-12-10T13:19:11.722Z,81.95
2018-12-10T13:21:39.987Z,84.16
2018-12-10T13:24:08.240Z,83.73
2018-12-10T13:26:36.565Z,82.88
2018-12-10T13:29:04.813Z,83.16
2018-12-10T13:31:33.257Z,82.90
2018-12-10T13:34:01.766Z,82.18
2018-12-10T13:36:30.016Z,83.36
2018-12-10T13:38:58.293Z,81.89
2018-12-10T13:41:26.577Z,81.72
2018-12-10T13:43:54.819Z,82.60
2018-12-10T13:46:23.120Z,82.33
2018-12-10T13:48:51.368Z,82.49
2018-12-10T13:51:19.625Z,83.44
2018-12-10T13:53:47.915Z,85.15
2018-12-10T13:56:16.183Z,84.27
2018-12-10T13:58:44.421Z,85.77
2018-12-10T14:01:12.682Z,87.15
2018-12-10T14:03:40.984Z,86.94
2018-12-10T14:06:09.236Z,86.76
2018-12-10T14:08:37.520Z,88.43
2018-12-10T14:11:05.781Z,90.73
2018-12-10T14:13:34.019Z,92.03
2018-12-10T14:16:02.287Z,94.13
2018-12-10T14:18:30.693Z,95.73
2018-12-10T14:20:58.991Z,96.51
2018-12-10T14:23:27.385Z,97.37
2018-12-10T14:28:33.998Z,99.85
2018-12-10T14:31:02.909Z,100.00
2018-12-10T14:33:31.254Z,100.00
2018-12-10T14:35:59.515Z,100.00
2018-12-10T14:38:27.823Z,100.00
2018-12-10T14:40:56.087Z,100.00
2018-12-10T14:43:24.339Z,100.00
2018-12-10T14:45:52.667Z,100.00
2018-12-10T14:48:21.167Z,100.00
2018-12-10T14:50:50.670Z,100.00
2018-12-10T14:53:18.897Z,100.00
2018-12-10T14:55:47.200Z,100.00
2018-12-10T14:58:15.442Z,99.94
2018-12-10T15:00:43.700Z,99.53
2018-12-10T15:03:11.971Z,98.59
2018-12-10T15:05:40.216Z,97.07
2018-12-10T15:08:08.482Z,96.68
2018-12-10T15:10:36.722Z,96.69
2018-12-10T15:13:04.946Z,97.40
2018-12-10T15:15:33.222Z,97.42
2018-12-10T15:18:01.477Z,96.05
2018-12-10T15:20:29.743Z,95.83
2018-12-10T15:22:57.984Z,94.71
2018-12-10T15:25:26.241Z,94.81
2018-12-10T15:27:54.513Z,93.80
2018-12-10T15:30:22.763Z,94.83
2018-12-10T15:32:51.030Z,94.96
2018-12-10T15:35:19.296Z,94.23
2018-12-10T15:37:47.572Z,94.29
2018-12-10T15:40:15.885Z,94.05
2018-12-10T15:42:44.123Z,94.99
2018-12-10T15:45:12.459Z,94.87
2018-12-10T15:47:40.700Z,94.37
2018-12-10T15:52:06.035Z,95.28
2018-12-10T15:54:34.306Z,94.82
2018-12-10T15:57:02.547Z,95.82
2018-12-10T15:59:30.808Z,95.59
2018-12-10T16:01:59.148Z,96.38
2018-12-10T16:07:07.592Z,96.91
2018-12-10T16:09:35.887Z,96.94
2018-12-10T16:12:04.189Z,96.35
2018-12-10T16:14:32.484Z,95.97
2018-12-10T16:17:00.729Z,94.93
2018-12-10T16:19:29.030Z,94.48
2018-12-10T16:21:57.543Z,94.92
2018-12-10T16:24:25.786Z,94.34
2018-12-10T16:26:54.115Z,94.68
2018-12-10T16:29:22.371Z,94.60
2018-12-10T16:31:50.660Z,94.63
2018-12-10T16:34:18.917Z,94.33
2018-12-10T16:36:47.181Z,95.11
2018-12-10T16:39:15.587Z,95.06
2018-12-10T16:41:43.858Z,94.51
2018-12-10T16:44:12.183Z,94.21
2018-12-10T16:46:40.471Z,93.91
2018-12-10T16:49:08.767Z,94.42
2018-12-10T16:51:37.060Z,94.64
2018-12-10T16:54:05.364Z,95.36
2018-12-10T16:56:33.859Z,95.33
2018-12-10T16:59:02.254Z,93.76
2018-12-10T17:01:30.504Z,93.82
2018-12-10T17:03:58.747Z,92.68
2018-12-10T17:06:27.029Z,91.30
2018-12-10T17:08:55.284Z,91.64
2018-12-10T17:11:23.642Z,92.11
2018-12-10T17:13:52.136Z,93.01
2018-12-10T17:16:20.385Z,92.70
2018-12-10T17:18:48.680Z,92.47
2018-12-10T17:21:16.937Z,93.13
2018-12-10T17:23:45.237Z,93.87
2018-12-10T17:26:13.637Z,93.37
2018-12-10T17:28:41.872Z,93.76
2018-12-10T17:31:10.166Z,93.27
2018-12-10T17:33:38.460Z,92.79
2018-12-10T17:36:06.799Z,92.80
2018-12-10T17:38:35.231Z,92.67
2018-12-10T17:41:06.630Z,94.21
2018-12-10T17:43:34.206Z,94.43
2018-12-10T17:46:02.553Z,95.47
2018-12-10T17:48:30.883Z,93.78
2018-12-10T17:50:59.213Z,93.64
2018-12-10T17:53:27.576Z,94.73
2018-12-10T17:55:55.825Z,93.58
2018-12-10T17:58:24.122Z,94.00
2018-12-10T18:00:52.399Z,92.22
2018-12-10T18:03:20.652Z,92.18
2018-12-10T18:05:48.992Z,91.73
2018-12-10T18:08:17.237Z,92.20
2018-12-10T18:10:45.491Z,91.70
2018-12-10T18:13:13.804Z,91.11
2018-12-10T18:15:42.094Z,90.50
2018-12-10T18:18:10.344Z,90.33
2018-12-10T18:20:38.899Z,90.61
2018-12-10T18:23:07.137Z,91.68
2018-12-10T18:25:36.746Z,91.78
2018-12-10T18:28:05.180Z,91.76
2018-12-10T18:30:34.260Z,91.04
2018-12-10T18:33:02.507Z,91.55
2018-12-10T18:35:30.993Z,91.18
2018-12-10T18:37:59.339Z,90.74
2018-12-10T18:40:27.700Z,90.38
2018-12-10T18:42:55.994Z,90.39
2018-12-10T18:45:24.245Z,90.61
2018-12-10T18:47:52.821Z,90.67
2018-12-10T18:50:21.055Z,91.04
2018-12-10T18:52:49.301Z,92.12
2018-12-10T18:55:17.592Z,91.98
2018-12-10T18:57:45.933Z,92.51
2018-12-10T19:00:14.393Z,92.31
2018-12-10T19:02:42.731Z,92.94
2018-12-10T19:05:11.086Z,92.29
2018-12-10T19:07:40.365Z,92.75
2018-12-10T19:10:08.759Z,93.71
2018-12-10T19:12:37.444Z,93.48
2018-12-10T19:15:07.659Z,92.84
2018-12-10T19:17:36.036Z,93.38
2018-12-10T19:20:06.180Z,92.93
2018-12-10T19:22:34.484Z,92.36
2018-12-10T19:25:02.734Z,92.33
2018-12-10T19:27:31.072Z,92.18
2018-12-10T19:29:59.400Z,92.55
2018-12-10T19:32:27.711Z,93.30
2018-12-10T19:34:56.469Z,93.09
2018-12-10T19:37:24.718Z,93.14
2018-12-10T19:39:52.961Z,93.92
2018-12-10T19:42:21.249Z,93.03
2018-12-10T19:44:49.549Z,93.83
2018-12-10T19:47:19.072Z,92.10
2018-12-10T19:49:47.568Z,91.84
2018-12-10T19:52:15.907Z,91.15
2018-12-10T19:54:44.153Z,91.25
2018-12-10T19:57:12.501Z,91.57
2018-12-10T19:59:40.737Z,92.09
2018-12-10T20:02:09.080Z,92.53
2018-12-10T20:04:37.853Z,92.08
2018-12-10T20:07:06.851Z,91.01
2018-12-10T20:09:35.668Z,92.43
2018-12-10T20:12:04.024Z,92.16
2018-12-10T20:14:32.372Z,91.20
2018-12-10T20:17:00.717Z,91.10
2018-12-10T20:19:28.968Z,90.70
2018-12-10T20:21:57.255Z,90.88
2018-12-10T20:24:25.570Z,92.66
2018-12-10T20:26:53.898Z,91.12
2018-12-10T20:29:22.261Z,90.85
2018-12-10T20:31:50.676Z,91.49
2018-12-10T20:34:18.935Z,90.91
2018-12-10T20:36:47.348Z,91.90
2018-12-10T20:39:15.672Z,89.61
2018-12-10T20:41:43.966Z,90.22
2018-12-10T20:44:12.210Z,90.11
2018-12-10T20:46:40.464Z,90.19
2018-12-10T20:49:08.753Z,89.11
2018-12-10T20:51:37.049Z,88.99
2018-12-10T20:54:05.289Z,90.63
2018-12-10T20:56:33.576Z,91.48
2018-12-10T20:59:01.832Z,91.85
2018-12-10T21:01:30.125Z,93.09
2018-12-10T21:03:58.368Z,94.40
2018-12-10T21:06:32.193Z,95.79
2018-12-10T21:09:00.476Z,96.79
2018-12-10T21:11:29.955Z,99.25
2018-12-10T21:13:58.248Z,100.00
2018-12-10T21:16:26.495Z,100.00
2018-12-10T21:18:54.739Z,100.00
2018-12-10T21:21:23.009Z,100.00
2018-12-10T21:23:51.297Z,100.00
2018-12-10T21:26:19.533Z,100.00
2018-12-10T21:28:47.960Z,100.00
2018-12-10T21:31:16.324Z,100.00
2018-12-10T21:33:44.580Z,100.00
2018-12-10T21:36:12.867Z,100.00
2018-12-10T21:38:41.144Z,100.00
2018-12-10T21:41:09.403Z,100.00
2018-12-10T21:43:37.688Z,100.00
2018-12-10T21:46:05.939Z,100.00
2018-12-10T21:48:34.201Z,100.00
2018-12-10T21:51:02.690Z,100.00
2018-12-10T21:53:30.980Z,100.00
2018-12-10T21:55:59.232Z,100.00
2018-12-10T21:58:27.829Z,100.00
2018-12-10T22:00:56.065Z,100.00
2018-12-10T22:03:24.360Z,100.00
2018-12-10T22:05:52.628Z,97.39
2018-12-10T22:08:20.877Z,97.12
2018-12-10T22:10:49.134Z,97.80
2018-12-10T22:13:17.604Z,97.73
2018-12-10T22:15:45.899Z,99.24
2018-12-10T22:18:14.171Z,99.98
2018-12-10T22:20:42.541Z,99.89
2018-12-10T22:23:10.844Z,99.30
2018-12-10T22:25:39.139Z,100.00
2018-12-10T22:28:07.430Z,99.96
2018-12-10T22:30:35.674Z,99.22
2018-12-10T22:33:03.983Z,99.99
2018-12-10T22:35:32.223Z,99.22
2018-12-10T22:38:00.487Z,97.50
2018-12-10T22:40:28.730Z,96.70
2018-12-10T22:42:56.999Z,97.53
2018-12-10T22:45:25.243Z,96.67
2018-12-10T22:47:53.503Z,97.19
2018-12-10T22:50:21.751Z,97.07
2018-12-10T22:52:50.023Z,97.02
2018-12-10T22:55:18.262Z,97.33
2018-12-10T22:57:46.525Z,97.84
2018-12-10T23:00:14.815Z,97.93
2018-12-10T23:02:43.106Z,97.26
2018-12-10T23:05:11.492Z,96.86
2018-12-10T23:07:39.730Z,95.03
2018-12-10T23:10:08.097Z,95.58
2018-12-10T23:12:36.350Z,93.27
2018-12-10T23:15:05.206Z,92.94
2018-12-10T23:17:33.513Z,91.53
2018-12-10T23:20:01.840Z,91.81
2018-12-10T23:22:30.088Z,93.24
2018-12-10T23:24:58.335Z,94.37
2018-12-10T23:27:26.596Z,95.13
2018-12-10T23:29:54.850Z,95.42
2018-12-10T23:32:23.088Z,95.21
2018-12-10T23:34:52.592Z,94.27
2018-12-10T23:37:20.842Z,95.42
2018-12-10T23:39:49.106Z,95.67
2018-12-10T23:42:17.351Z,94.85
2018-12-10T23:44:51.206Z,94.24
2018-12-10T23:47:19.449Z,94.13
2018-12-10T23:49:47.714Z,94.30
2018-12-10T23:52:15.957Z,94.40
2018-12-10T23:54:44.255Z,92.69
2018-12-10T23:57:12.563Z,92.72
2018-12-10T23:59:41.133Z,93.41
